createdAt,value
2018-09-08T00:00:02.759Z,10.07
2018-09-08T00:02:31.816Z,10.63
2018-09-08T00:05:00.821Z,11.00
2018-09-08T00:07:35.593Z,10.97
2018-09-08T00:10:05.469Z,12.00
2018-09-08T00:12:34.539Z,12.97
2018-09-08T00:15:09.054Z,12.60
2018-09-08T00:17:43.502Z,13.07
2018-09-08T00:20:17.647Z,13.30
2018-09-08T00:22:52.079Z,12.53
2018-09-08T00:25:26.479Z,12.73
2018-09-08T00:27:59.941Z,12.20
2018-09-08T00:30:29.075Z,12.83
2018-09-08T00:32:58.121Z,12.40
2018-09-08T00:35:27.188Z,12.97
2018-09-08T00:37:56.404Z,12.10
2018-09-08T00:40:25.457Z,13.20
2018-09-08T00:42:54.541Z,12.67
2018-09-08T00:45:23.512Z,11.90
2018-09-08T00:47:52.511Z,11.70
2018-09-08T00:50:21.536Z,12.53
2018-09-08T00:52:50.614Z,12.63
2018-09-08T00:55:19.627Z,11.50
2018-09-08T00:57:48.674Z,12.07
2018-09-08T01:00:17.613Z,11.90
2018-09-08T01:02:46.589Z,10.00
2018-09-08T01:05:15.695Z,10.10
2018-09-08T01:07:44.747Z,9.70
2018-09-08T01:10:13.744Z,9.63
2018-09-08T01:12:42.886Z,10.37
2018-09-08T01:15:11.970Z,9.60
2018-09-08T01:17:40.950Z,10.63
2018-09-08T01:20:09.992Z,9.90
2018-09-08T01:22:39.013Z,9.87
2018-09-08T01:25:08.033Z,9.07
2018-09-08T01:27:37.158Z,9.10
2018-09-08T01:30:06.506Z,9.17
2018-09-08T01:32:35.510Z,9.47
2018-09-08T01:35:04.673Z,9.63
2018-09-08T01:37:33.758Z,11.47
2018-09-08T01:40:02.775Z,10.20
2018-09-08T01:42:31.778Z,10.60
2018-09-08T01:45:00.770Z,11.30
2018-09-08T01:47:29.829Z,11.57
2018-09-08T01:49:58.834Z,11.03
2018-09-08T01:52:27.858Z,11.70
2018-09-08T01:54:56.918Z,10.10
2018-09-08T01:57:25.906Z,9.47
2018-09-08T01:59:55.050Z,9.60
2018-09-08T02:02:24.031Z,9.60
2018-09-08T02:04:53.136Z,9.77
2018-09-08T02:07:22.141Z,10.07
2018-09-08T02:09:51.298Z,9.27
2018-09-08T02:12:20.275Z,9.43
2018-09-08T02:14:49.413Z,9.53
2018-09-08T02:17:18.399Z,10.40
2018-09-08T02:19:47.410Z,10.30
2018-09-08T02:22:16.465Z,9.90
2018-09-08T02:24:45.571Z,9.60
2018-09-08T02:27:14.595Z,8.93
2018-09-08T02:29:43.607Z,10.17
2018-09-08T02:32:12.615Z,10.23
2018-09-08T02:34:41.602Z,9.63
2018-09-08T02:37:10.618Z,9.93
2018-09-08T02:39:39.610Z,9.83
2018-09-08T02:42:09.585Z,9.40
2018-09-08T02:44:38.565Z,11.13
2018-09-08T02:47:07.550Z,9.73
2018-09-08T02:50:40.432Z,10.00
2018-09-08T02:53:09.688Z,9.27
2018-09-08T02:55:37.921Z,10.20
2018-09-08T02:58:06.056Z,9.27
2018-09-08T03:00:34.340Z,9.20
2018-09-08T03:03:02.278Z,9.47
2018-09-08T03:05:30.265Z,9.50
2018-09-08T03:07:58.331Z,9.60
2018-09-08T03:10:26.269Z,9.00
2018-09-08T03:12:54.227Z,8.50
2018-09-08T03:15:22.233Z,9.30
2018-09-08T03:17:50.225Z,9.30
2018-09-08T03:20:18.226Z,8.40
2018-09-08T03:22:46.290Z,9.13
2018-09-08T03:25:14.260Z,8.70
2018-09-08T03:27:42.280Z,8.33
2018-09-08T03:30:10.334Z,9.63
2018-09-08T03:32:38.269Z,10.03
2018-09-08T03:35:06.239Z,9.27
2018-09-08T03:40:05.302Z,9.50
2018-09-08T03:42:33.259Z,9.50
2018-09-08T03:45:01.223Z,8.60
2018-09-08T03:47:29.202Z,8.50
2018-09-08T03:49:57.158Z,9.13
2018-09-08T03:52:25.136Z,10.03
2018-09-08T03:54:53.218Z,9.93
2018-09-08T03:57:21.302Z,8.90
2018-09-08T03:59:49.269Z,8.90
2018-09-08T04:02:17.431Z,8.27
2018-09-08T04:04:46.411Z,8.20
2018-09-08T04:07:15.411Z,8.60
2018-09-08T04:09:44.409Z,9.10
2018-09-08T04:12:13.501Z,8.13
2018-09-08T04:14:42.474Z,8.73
2018-09-08T04:17:11.464Z,9.83
2018-09-08T04:19:40.487Z,8.80
2018-09-08T04:22:09.490Z,8.80
2018-09-08T04:24:38.509Z,8.80
2018-09-08T04:27:07.667Z,10.03
2018-09-08T04:29:36.789Z,9.40
2018-09-08T04:32:05.763Z,10.30
2018-09-08T04:34:34.734Z,8.87
2018-09-08T04:37:03.735Z,10.97
2018-09-08T04:39:33.107Z,10.53
2018-09-08T04:42:02.179Z,9.97
2018-09-08T04:44:31.222Z,10.17
2018-09-08T04:47:00.346Z,10.17
2018-09-08T04:49:29.380Z,10.57
2018-09-08T04:51:58.376Z,10.27
2018-09-08T04:54:27.367Z,10.07
2018-09-08T04:56:56.442Z,10.70
2018-09-08T04:59:25.494Z,11.10
2018-09-08T05:01:54.414Z,10.80
2018-09-08T05:04:23.387Z,10.27
2018-09-08T05:06:52.772Z,10.47
2018-09-08T05:09:21.752Z,11.40
2018-09-08T05:11:50.789Z,10.37
2018-09-08T05:14:19.915Z,10.50
2018-09-08T05:16:48.948Z,10.80
2018-09-08T05:19:17.914Z,11.50
2018-09-08T05:21:46.932Z,11.27
2018-09-08T05:24:15.926Z,10.67
2018-09-08T05:26:44.950Z,11.73
2018-09-08T05:29:13.951Z,10.47
2018-09-08T05:31:42.967Z,9.40
2018-09-08T05:34:11.983Z,10.70
2018-09-08T05:36:40.971Z,10.97
2018-09-08T05:39:09.962Z,9.63
2018-09-08T05:41:38.943Z,10.90
2018-09-08T05:44:07.999Z,9.10
2018-09-08T05:46:36.969Z,10.30
2018-09-08T05:49:05.974Z,11.03
2018-09-08T05:51:34.989Z,10.70
2018-09-08T05:54:04.007Z,9.53
2018-09-08T05:56:33.124Z,10.50
2018-09-08T05:59:02.118Z,10.10
2018-09-08T06:01:31.514Z,10.27
2018-09-08T06:04:00.610Z,9.57
2018-09-08T06:06:29.633Z,9.27
2018-09-08T06:08:58.596Z,9.60
2018-09-08T06:11:27.674Z,10.80
2018-09-08T06:13:56.723Z,12.77
2018-09-08T06:16:26.757Z,10.43
2018-09-08T06:18:55.771Z,9.50
2018-09-08T06:21:24.913Z,9.70
2018-09-08T06:23:54.172Z,9.00
2018-09-08T06:26:23.343Z,9.73
2018-09-08T06:28:53.217Z,9.23
2018-09-08T06:31:22.803Z,9.00
2018-09-08T06:33:52.818Z,8.47
2018-09-08T06:36:21.683Z,9.20
2018-09-08T06:38:50.740Z,8.50
2018-09-08T06:41:23.836Z,8.73
2018-09-08T06:43:52.850Z,8.97
2018-09-08T06:46:21.886Z,8.53
2018-09-08T06:48:57.626Z,9.70
2018-09-08T06:51:26.749Z,8.83
2018-09-08T06:53:55.804Z,9.20
2018-09-08T06:56:24.850Z,9.27
2018-09-08T06:58:53.861Z,9.83
2018-09-08T07:01:22.846Z,8.57
2018-09-08T07:03:51.866Z,8.80
2018-09-08T07:06:20.837Z,8.17
2018-09-08T07:08:49.818Z,8.90
2018-09-08T07:11:18.845Z,8.53
2018-09-08T07:13:47.837Z,8.80
2018-09-08T07:16:16.817Z,9.50
2018-09-08T07:18:45.954Z,9.90
2018-09-08T07:21:14.943Z,9.70
2018-09-08T07:23:43.938Z,8.77
2018-09-08T07:26:12.966Z,9.37
2018-09-08T07:28:41.949Z,8.53
2018-09-08T07:31:11.001Z,10.80
2018-09-08T07:33:46.909Z,9.53
2018-09-08T07:36:17.066Z,7.80
2018-09-08T07:38:46.096Z,9.30
2018-09-08T07:41:15.066Z,8.27
2018-09-08T07:43:44.094Z,8.50
2018-09-08T07:46:13.203Z,8.40
2018-09-08T07:48:42.230Z,7.07
2018-09-08T07:51:11.195Z,7.50
2018-09-08T07:53:40.472Z,8.00
2018-09-08T07:56:09.322Z,8.03
2018-09-08T07:58:38.392Z,7.37
2018-09-08T08:01:07.387Z,7.90
2018-09-08T08:03:36.399Z,9.17
2018-09-08T08:06:05.575Z,9.80
2018-09-08T08:08:34.887Z,8.57
2018-09-08T08:11:03.927Z,7.73
2018-09-08T08:13:32.899Z,6.47
2018-09-08T08:16:01.874Z,6.17
2018-09-08T08:18:30.951Z,6.00
2018-09-08T08:21:00.209Z,4.87
2018-09-08T08:23:29.215Z,4.60
2018-09-08T08:25:58.208Z,3.63
2018-09-08T08:28:27.201Z,4.00
2018-09-08T08:30:56.210Z,3.67
2018-09-08T08:33:25.240Z,4.73
2018-09-08T08:35:54.298Z,5.00
2018-09-08T08:38:23.423Z,4.27
2018-09-08T08:40:52.680Z,4.80
2018-09-08T08:43:22.429Z,4.67
2018-09-08T08:45:51.729Z,5.47
2018-09-08T08:48:20.723Z,5.77
2018-09-08T08:51:01.815Z,5.40
2018-09-08T08:53:42.223Z,6.10
2018-09-08T08:56:12.463Z,6.60
2018-09-08T08:58:41.518Z,6.30
2018-09-08T09:01:10.785Z,5.60
2018-09-08T09:03:39.772Z,6.37
2018-09-08T09:06:08.837Z,5.97
2018-09-08T09:08:38.285Z,6.00
2018-09-08T09:11:07.048Z,6.77
2018-09-08T09:13:36.153Z,6.50
2018-09-08T09:16:05.282Z,5.87
2018-09-08T09:18:45.969Z,4.33
2018-09-08T09:21:26.217Z,4.10
2018-09-08T09:24:20.704Z,3.93
2018-09-08T09:26:49.286Z,5.13
2018-09-08T09:29:18.421Z,5.43
2018-09-08T09:34:15.606Z,5.77
2018-09-08T09:36:44.594Z,5.00
2018-09-08T09:39:13.671Z,4.60
2018-09-08T09:41:42.910Z,5.03
2018-09-08T09:44:12.405Z,4.73
2018-09-08T09:46:41.811Z,4.80
2018-09-08T09:49:10.859Z,5.17
2018-09-08T09:51:39.856Z,5.00
2018-09-08T09:54:08.879Z,4.57
2018-09-08T09:56:37.865Z,4.43
2018-09-08T09:59:06.899Z,5.00
2018-09-08T10:01:41.416Z,4.70
2018-09-08T10:04:10.661Z,5.10
2018-09-08T10:06:39.717Z,4.47
2018-09-08T10:09:08.914Z,4.40
2018-09-08T10:11:38.102Z,5.00
2018-09-08T10:14:07.173Z,4.83
2018-09-08T10:16:36.167Z,4.20
2018-09-08T10:19:05.246Z,4.33
2018-09-08T10:21:34.268Z,3.90
2018-09-08T10:24:05.673Z,3.83
2018-09-08T10:26:34.691Z,4.10
2018-09-08T10:29:03.730Z,3.90
2018-09-08T10:31:32.791Z,3.90
2018-09-08T10:34:01.760Z,4.20
2018-09-08T10:36:30.755Z,3.70
2018-09-08T10:38:59.810Z,3.90
2018-09-08T10:41:28.787Z,3.60
2018-09-08T10:43:57.833Z,3.60
2018-09-08T10:46:28.090Z,3.37
2018-09-08T10:48:57.158Z,3.50
2018-09-08T10:51:34.690Z,3.67
2018-09-08T10:54:03.696Z,3.10
2018-09-08T10:56:32.676Z,3.57
2018-09-08T10:59:01.676Z,3.90
2018-09-08T11:01:30.787Z,3.70
2018-09-08T11:03:59.741Z,3.80
2018-09-08T11:06:28.783Z,3.93
2018-09-08T11:08:57.900Z,3.60
2018-09-08T11:11:26.893Z,3.90
2018-09-08T11:13:56.115Z,3.77
2018-09-08T11:16:25.113Z,3.40
2018-09-08T11:18:54.154Z,3.67
2018-09-08T11:21:23.351Z,3.60
2018-09-08T11:23:52.472Z,3.57
2018-09-08T11:26:21.483Z,3.70
2018-09-08T11:28:50.460Z,3.80
2018-09-08T11:31:20.299Z,3.60
2018-09-08T11:33:49.279Z,3.07
2018-09-08T11:36:18.274Z,3.10
2018-09-08T11:38:47.251Z,2.93
2018-09-08T11:41:16.225Z,3.10
2018-09-08T11:43:45.237Z,3.03
2018-09-08T11:46:14.560Z,2.60
2018-09-08T11:48:43.554Z,2.73
2018-09-08T11:51:12.625Z,3.00
2018-09-08T11:53:41.651Z,2.97
2018-09-08T11:56:10.644Z,2.67
2018-09-08T11:58:39.715Z,2.83
2018-09-08T12:01:08.758Z,2.50
2018-09-08T12:03:37.739Z,2.80
2018-09-08T12:06:06.737Z,2.57
2018-09-08T12:08:35.909Z,2.73
2018-09-08T12:11:05.499Z,2.57
2018-09-08T12:13:34.510Z,2.80
2018-09-08T12:16:03.551Z,2.50
2018-09-08T12:18:32.535Z,2.47
2018-09-08T12:21:01.569Z,2.30
2018-09-08T12:23:30.620Z,2.70
2018-09-08T12:25:59.823Z,2.40
2018-09-08T12:28:29.019Z,2.43
2018-09-08T12:30:58.095Z,2.50
2018-09-08T12:33:27.063Z,2.20
2018-09-08T12:35:56.149Z,2.37
2018-09-08T12:38:25.135Z,2.63
2018-09-08T12:40:54.102Z,2.07
2018-09-08T12:43:23.126Z,2.20
2018-09-08T12:45:52.321Z,2.20
2018-09-08T12:48:21.273Z,2.23
2018-09-08T12:50:50.250Z,2.10
2018-09-08T12:53:19.279Z,2.17
2018-09-08T12:55:48.294Z,2.10
2018-09-08T12:58:17.266Z,2.30
2018-09-08T13:00:46.234Z,2.20
2018-09-08T13:03:15.206Z,2.03
2018-09-08T13:05:44.326Z,2.10
2018-09-08T13:08:13.306Z,1.70
2018-09-08T13:10:42.278Z,2.00
2018-09-08T13:13:11.459Z,1.80
2018-09-08T13:15:40.454Z,1.80
2018-09-08T13:18:09.435Z,2.00
2018-09-08T13:20:38.390Z,1.80
2018-09-08T13:23:07.366Z,1.90
2018-09-08T13:25:36.519Z,1.80
2018-09-08T13:28:05.625Z,1.63
2018-09-08T13:30:35.265Z,1.70
2018-09-08T13:33:04.245Z,1.70
2018-09-08T13:35:33.602Z,1.80
2018-09-08T13:38:02.568Z,1.70
2018-09-08T13:40:31.514Z,1.67
2018-09-08T13:43:00.509Z,1.63
2018-09-08T13:45:29.443Z,1.50
2018-09-08T13:47:58.535Z,1.80
2018-09-08T13:50:27.825Z,1.87
2018-09-08T13:52:57.042Z,1.40
2018-09-08T13:55:26.159Z,1.57
2018-09-08T13:57:55.135Z,1.40
2018-09-08T14:00:24.101Z,1.40
2018-09-08T14:02:53.122Z,1.33
2018-09-08T14:05:22.214Z,1.20
2018-09-08T14:07:52.891Z,1.40
2018-09-08T14:10:21.853Z,1.23
2018-09-08T14:12:50.845Z,0.93
2018-09-08T14:15:20.096Z,1.00
2018-09-08T14:17:49.023Z,1.13
2018-09-08T14:20:17.993Z,0.90
2018-09-08T14:22:46.986Z,0.90
2018-09-08T14:25:15.951Z,0.97
2018-09-08T14:27:44.923Z,0.90
2018-09-08T14:30:14.042Z,1.00
2018-09-08T14:32:43.003Z,0.90
2018-09-08T14:35:11.977Z,0.90
2018-09-08T14:37:40.981Z,1.00
2018-09-08T14:40:09.937Z,1.17
2018-09-08T14:42:38.949Z,0.80
2018-09-08T14:45:07.993Z,1.27
2018-09-08T14:47:37.030Z,1.00
2018-09-08T14:50:05.946Z,1.10
2018-09-08T14:52:35.012Z,1.47
2018-09-08T14:55:03.970Z,1.30
2018-09-08T14:57:32.994Z,1.80
2018-09-08T15:00:01.956Z,1.43
2018-09-08T15:02:30.925Z,1.60
2018-09-08T15:05:00.008Z,1.50
2018-09-08T15:07:28.982Z,1.70
2018-09-08T15:09:57.998Z,1.73
2018-09-08T15:12:26.964Z,2.00
2018-09-08T15:14:55.941Z,2.00
2018-09-08T15:17:24.946Z,2.10
2018-09-08T15:19:54.014Z,2.20
2018-09-08T15:22:22.977Z,2.20
2018-09-08T15:24:51.934Z,1.93
2018-09-08T15:27:20.959Z,2.10
2018-09-08T15:29:49.915Z,2.30
2018-09-08T15:32:18.974Z,2.20
2018-09-08T15:34:47.966Z,2.10
2018-09-08T15:37:16.926Z,2.23
2018-09-08T15:39:45.910Z,2.20
2018-09-08T15:42:15.080Z,2.47
2018-09-08T15:44:44.016Z,2.30
2018-09-08T15:47:12.974Z,2.37
2018-09-08T15:52:18.208Z,2.53
2018-09-08T15:54:47.171Z,2.40
2018-09-08T15:57:16.186Z,2.43
2018-09-08T15:59:45.224Z,2.40
2018-09-08T16:02:14.178Z,2.43
2018-09-08T16:04:43.180Z,2.50
2018-09-08T16:07:12.155Z,2.80
2018-09-08T16:09:41.135Z,2.90
2018-09-08T16:12:10.096Z,2.73
2018-09-08T16:14:39.121Z,2.50
2018-09-08T16:17:08.303Z,2.50
2018-09-08T16:19:37.884Z,2.70
2018-09-08T16:22:06.915Z,2.77
2018-09-08T16:24:35.896Z,2.40
2018-09-08T16:27:05.398Z,2.70
2018-09-08T16:29:35.846Z,2.67
2018-09-08T16:32:05.815Z,2.50
2018-09-08T16:34:34.960Z,2.60
2018-09-08T16:37:04.043Z,2.67
2018-09-08T16:39:33.054Z,2.70
2018-09-08T16:42:02.078Z,2.73
2018-09-08T16:44:31.035Z,2.80
2018-09-08T16:47:00.006Z,3.03
2018-09-08T16:49:28.981Z,2.73
2018-09-08T16:51:58.018Z,2.80
2018-09-08T16:54:26.997Z,2.90
2018-09-08T16:56:56.002Z,2.90
2018-09-08T16:59:25.015Z,2.47
2018-09-08T17:01:54.013Z,2.83
2018-09-08T17:04:23.162Z,3.00
2018-09-08T17:06:52.216Z,2.90
2018-09-08T17:09:21.183Z,3.20
2018-09-08T17:11:50.206Z,2.87
2018-09-08T17:14:19.198Z,2.77
2018-09-08T17:16:48.875Z,3.30
2018-09-08T17:19:17.929Z,3.10
2018-09-08T17:21:46.874Z,3.50
2018-09-08T17:24:15.870Z,3.23
2018-09-08T17:26:44.853Z,3.57
2018-09-08T17:29:13.831Z,3.43
2018-09-08T17:31:42.884Z,4.57
2018-09-08T17:34:11.989Z,4.30
2018-09-08T17:36:41.070Z,4.20
2018-09-08T17:39:12.016Z,3.93
2018-09-08T17:41:41.072Z,4.10
2018-09-08T17:44:10.049Z,3.87
2018-09-08T17:46:39.218Z,4.20
2018-09-08T17:49:08.214Z,3.97
2018-09-08T17:51:37.307Z,3.77
2018-09-08T17:54:06.505Z,4.20
2018-09-08T17:56:35.505Z,4.33
2018-09-08T18:01:34.570Z,4.20
2018-09-08T18:04:03.539Z,3.80
2018-09-08T18:06:32.523Z,4.30
2018-09-08T18:09:01.507Z,4.57
2018-09-08T18:11:30.471Z,4.83
2018-09-08T18:13:59.453Z,4.97
2018-09-08T18:16:28.505Z,4.80
2018-09-08T18:18:57.521Z,5.10
2018-09-08T18:21:26.518Z,5.67
2018-09-08T18:23:55.497Z,4.93
2018-09-08T18:26:24.477Z,4.90
2018-09-08T18:28:53.455Z,5.33
2018-09-08T18:31:22.491Z,5.20
2018-09-08T18:33:51.540Z,5.20
2018-09-08T18:36:20.567Z,5.40
2018-09-08T18:38:49.640Z,5.00
2018-09-08T18:41:18.692Z,5.17
2018-09-08T18:43:47.654Z,5.60
2018-09-08T18:46:16.645Z,4.70
2018-09-08T18:48:45.731Z,4.40
2018-09-08T18:53:36.829Z,4.23
2018-09-08T18:56:06.154Z,4.23
2018-09-08T18:58:35.141Z,4.37
2018-09-08T19:01:04.162Z,4.30
2018-09-08T19:03:33.219Z,4.20
2018-09-08T19:06:02.222Z,4.37
2018-09-08T19:08:36.637Z,4.20
2018-09-08T19:11:06.038Z,4.60
2018-09-08T19:13:34.934Z,4.80
2018-09-08T19:16:03.910Z,4.70
2018-09-08T19:18:33.039Z,4.80
2018-09-08T19:21:02.017Z,4.80
2018-09-08T19:23:31.242Z,5.10
2018-09-08T19:26:00.242Z,4.83
2018-09-08T19:28:29.227Z,5.20
2018-09-08T19:30:58.383Z,4.70
2018-09-08T19:33:27.350Z,5.27
2018-09-08T19:35:56.410Z,5.30
2018-09-08T19:38:25.390Z,5.63
2018-09-08T19:40:54.560Z,5.37
2018-09-08T19:43:23.578Z,5.53
2018-09-08T19:45:52.570Z,5.20
2018-09-08T19:48:21.874Z,5.50
2018-09-08T19:50:50.864Z,6.47
2018-09-08T19:53:25.246Z,6.93
2018-09-08T19:55:54.228Z,6.73
2018-09-08T19:58:28.621Z,5.90
2018-09-08T20:00:57.774Z,6.10
2018-09-08T20:03:26.750Z,5.77
2018-09-08T20:05:55.733Z,5.40
2018-09-08T20:08:24.764Z,5.60
2018-09-08T20:10:53.811Z,5.30
2018-09-08T20:13:22.838Z,5.97
2018-09-08T20:15:52.185Z,5.80
2018-09-08T20:18:21.243Z,6.17
2018-09-08T20:20:50.309Z,5.97
2018-09-08T20:23:19.327Z,5.93
2018-09-08T20:25:48.448Z,6.07
2018-09-08T20:28:17.412Z,6.37
2018-09-08T20:30:46.376Z,6.20
2018-09-08T20:33:15.690Z,6.13
2018-09-08T20:35:44.813Z,6.20
2018-09-08T20:38:13.846Z,6.10
2018-09-08T20:40:42.900Z,5.47
2018-09-08T20:43:12.042Z,5.50
2018-09-08T20:45:41.052Z,5.70
2018-09-08T20:48:10.015Z,5.67
2018-09-08T20:50:38.978Z,6.00
2018-09-08T20:53:07.958Z,5.77
2018-09-08T20:55:37.066Z,5.73
2018-09-08T20:58:06.160Z,6.47
2018-09-08T21:00:35.822Z,6.80
2018-09-08T21:03:05.044Z,6.40
2018-09-08T21:05:34.074Z,6.30
2018-09-08T21:08:03.116Z,6.27
2018-09-08T21:10:32.258Z,6.50
2018-09-08T21:13:01.267Z,6.20
2018-09-08T21:15:30.466Z,6.63
2018-09-08T21:17:59.501Z,6.40
2018-09-08T21:20:28.625Z,6.93
2018-09-08T21:22:57.686Z,6.60
2018-09-08T21:25:26.833Z,6.53
2018-09-08T21:27:56.078Z,5.77
2018-09-08T21:30:24.985Z,5.73
2018-09-08T21:32:54.349Z,6.50
2018-09-08T21:35:23.694Z,6.47
2018-09-08T21:37:52.729Z,6.80
2018-09-08T21:40:21.750Z,7.10
2018-09-08T21:42:51.027Z,6.90
2018-09-08T21:45:20.247Z,6.00
2018-09-08T21:47:49.201Z,6.90
2018-09-08T21:50:18.314Z,6.90
2018-09-08T21:52:47.319Z,6.37
2018-09-08T21:55:16.317Z,6.60
2018-09-08T21:57:45.319Z,7.07
2018-09-08T22:00:14.281Z,6.17
2018-09-08T22:02:43.334Z,6.73
2018-09-08T22:05:12.348Z,6.63
2018-09-08T22:07:41.339Z,6.60
2018-09-08T22:10:10.331Z,6.57
2018-09-08T22:12:39.325Z,6.50
2018-09-08T22:15:08.334Z,5.40
2018-09-08T22:17:37.314Z,5.63
2018-09-08T22:20:06.322Z,5.93
2018-09-08T22:22:35.337Z,5.90
2018-09-08T22:25:04.325Z,6.10
2018-09-08T22:27:33.388Z,5.90
2018-09-08T22:30:02.421Z,6.00
2018-09-08T22:32:31.378Z,6.40
2018-09-08T22:35:00.440Z,7.10
2018-09-08T22:37:29.375Z,6.67
2018-09-08T22:39:58.418Z,6.37
2018-09-08T22:42:27.454Z,6.60
2018-09-08T22:44:56.462Z,6.60
2018-09-08T22:47:25.589Z,6.27
2018-09-08T22:49:54.653Z,6.43
2018-09-08T22:52:23.626Z,6.37
2018-09-08T22:54:52.646Z,7.10
2018-09-08T22:57:21.639Z,6.87
2018-09-08T22:59:50.635Z,7.97
2018-09-08T23:02:19.627Z,7.93
2018-09-08T23:04:49.416Z,8.47
2018-09-08T23:07:18.545Z,7.17
2018-09-08T23:09:47.524Z,7.23
2018-09-08T23:12:16.569Z,7.50
2018-09-08T23:14:45.599Z,7.70
2018-09-08T23:17:14.787Z,7.30
2018-09-08T23:19:44.020Z,7.10
2018-09-08T23:22:12.977Z,7.27
2018-09-08T23:24:41.938Z,7.00
2018-09-08T23:27:11.017Z,7.47
2018-09-08T23:29:39.979Z,6.53
2018-09-08T23:32:08.978Z,7.20
2018-09-08T23:34:38.078Z,7.00
2018-09-08T23:37:07.055Z,6.80
2018-09-08T23:39:36.094Z,7.10
2018-09-08T23:42:05.155Z,7.17
2018-09-08T23:44:34.145Z,6.80
2018-09-08T23:47:03.202Z,7.13
2018-09-08T23:49:32.362Z,7.20
2018-09-08T23:52:01.363Z,7.20
2018-09-08T23:54:30.418Z,7.20
2018-09-08T23:56:59.447Z,7.30
2018-09-08T23:59:28.726Z,6.67
